createdAt,value
2019-02-24T00:00:03.686Z,5.30
2019-02-24T00:02:32.277Z,5.00
2019-02-24T00:05:00.846Z,4.50
2019-02-24T00:07:29.722Z,4.80
2019-02-24T00:09:58.298Z,4.80
2019-02-24T00:12:26.889Z,4.57
2019-02-24T00:14:55.465Z,4.63
2019-02-24T00:17:24.037Z,4.40
2019-02-24T00:19:52.621Z,4.70
2019-02-24T00:22:21.189Z,4.53
2019-02-24T00:24:49.807Z,4.10
2019-02-24T00:27:18.383Z,5.37
2019-02-24T00:29:47.241Z,4.87
2019-02-24T00:32:15.836Z,4.20
2019-02-24T00:34:44.849Z,4.80
2019-02-24T00:37:13.435Z,5.20
2019-02-24T00:39:42.035Z,5.20
2019-02-24T00:42:10.576Z,4.77
2019-02-24T00:44:39.168Z,5.67
2019-02-24T00:47:07.749Z,5.87
2019-02-24T00:49:36.349Z,5.07
2019-02-24T00:52:04.925Z,5.70
2019-02-24T00:54:33.505Z,5.83
2019-02-24T00:57:02.109Z,5.13
2019-02-24T00:59:30.974Z,6.07
2019-02-24T01:01:59.999Z,5.23
2019-02-24T01:04:28.761Z,5.87
2019-02-24T01:06:57.345Z,5.40
2019-02-24T01:09:25.941Z,4.80
2019-02-24T01:11:54.518Z,5.10
2019-02-24T01:14:23.117Z,5.67
2019-02-24T01:16:51.690Z,5.90
2019-02-24T01:19:20.270Z,6.20
2019-02-24T01:21:48.870Z,5.30
2019-02-24T01:24:17.726Z,5.50
2019-02-24T01:26:46.621Z,5.07
2019-02-24T01:29:15.197Z,5.50
2019-02-24T01:31:43.769Z,5.57
2019-02-24T01:34:12.367Z,5.40
2019-02-24T01:36:40.944Z,6.60
2019-02-24T01:39:09.557Z,6.13
2019-02-24T01:41:38.421Z,5.40
2019-02-24T01:44:07.001Z,5.10
2019-02-24T01:46:35.604Z,6.10
2019-02-24T01:49:04.256Z,5.23
2019-02-24T01:51:32.844Z,5.17
2019-02-24T01:54:01.417Z,5.33
2019-02-24T01:56:29.994Z,5.00
2019-02-24T01:58:58.585Z,4.40
2019-02-24T02:01:27.158Z,4.83
2019-02-24T02:03:56.196Z,4.87
2019-02-24T02:06:24.780Z,4.87
2019-02-24T02:08:53.401Z,4.90
2019-02-24T02:11:22.045Z,4.73
2019-02-24T02:13:50.970Z,5.27
2019-02-24T02:16:19.630Z,4.00
2019-02-24T02:18:48.538Z,4.40
2019-02-24T02:21:17.167Z,4.43
2019-02-24T02:23:45.882Z,3.93
2019-02-24T02:26:14.781Z,4.27
2019-02-24T02:28:44.186Z,4.43
2019-02-24T02:31:12.933Z,4.37
2019-02-24T02:33:41.549Z,4.83
2019-02-24T02:36:10.644Z,3.83
2019-02-24T02:38:39.270Z,4.60
2019-02-24T02:41:07.885Z,3.50
2019-02-24T02:43:36.541Z,4.40
2019-02-24T02:46:05.165Z,4.53
2019-02-24T02:48:33.826Z,4.17
2019-02-24T02:51:02.766Z,4.00
2019-02-24T02:53:31.390Z,4.33
2019-02-24T02:56:00.029Z,4.13
2019-02-24T02:58:28.653Z,4.20
2019-02-24T03:00:57.305Z,4.50
2019-02-24T03:03:26.290Z,4.60
2019-02-24T03:06:06.497Z,4.00
2019-02-24T03:08:45.482Z,4.87
2019-02-24T03:11:14.568Z,4.47
2019-02-24T03:13:43.202Z,4.50
2019-02-24T03:16:12.228Z,4.13
2019-02-24T03:18:41.228Z,3.93
2019-02-24T03:21:10.146Z,5.40
2019-02-24T03:23:38.761Z,5.70
2019-02-24T03:26:07.505Z,5.57
2019-02-24T03:28:36.130Z,5.23
2019-02-24T03:31:04.755Z,4.83
2019-02-24T03:33:33.420Z,5.17
2019-02-24T03:36:02.033Z,5.07
2019-02-24T03:38:31.015Z,4.83
2019-02-24T03:40:59.954Z,5.20
2019-02-24T03:43:28.577Z,5.57
2019-02-24T03:45:57.204Z,6.10
2019-02-24T03:48:25.854Z,6.47
2019-02-24T03:50:54.486Z,5.80
2019-02-24T03:53:23.119Z,5.60
2019-02-24T03:55:51.787Z,7.73
2019-02-24T03:58:20.414Z,6.00
2019-02-24T04:00:49.050Z,5.87
2019-02-24T04:03:17.721Z,5.80
2019-02-24T04:05:46.377Z,5.77
2019-02-24T04:08:15.019Z,6.07
2019-02-24T04:10:43.652Z,8.07
2019-02-24T04:13:12.621Z,8.07
2019-02-24T04:15:41.693Z,10.17
2019-02-24T04:18:10.321Z,10.23
2019-02-24T04:20:38.972Z,8.57
2019-02-24T04:23:07.593Z,7.10
2019-02-24T04:25:36.585Z,6.47
2019-02-24T04:28:05.210Z,5.70
2019-02-24T04:30:34.110Z,5.93
2019-02-24T04:33:02.848Z,6.00
2019-02-24T04:35:31.503Z,6.20
2019-02-24T04:38:00.152Z,6.00
2019-02-24T04:40:28.780Z,6.80
2019-02-24T04:42:57.693Z,6.23
2019-02-24T04:45:26.342Z,7.33
2019-02-24T04:47:55.245Z,5.23
2019-02-24T04:50:23.932Z,5.80
2019-02-24T04:52:52.559Z,5.83
2019-02-24T04:55:21.190Z,6.17
2019-02-24T04:57:49.825Z,5.03
2019-02-24T05:00:18.452Z,5.03
2019-02-24T05:02:47.096Z,5.80
2019-02-24T05:05:15.758Z,7.80
2019-02-24T05:07:44.770Z,7.13
2019-02-24T05:10:13.462Z,6.97
2019-02-24T05:12:42.088Z,6.07
2019-02-24T05:15:10.738Z,5.30
2019-02-24T05:17:39.370Z,5.20
2019-02-24T05:20:08.017Z,5.87
2019-02-24T05:22:36.664Z,5.00
2019-02-24T05:25:05.421Z,5.43
2019-02-24T05:27:34.082Z,5.37
2019-02-24T05:30:02.707Z,4.93
2019-02-24T05:32:31.331Z,5.03
2019-02-24T05:34:59.985Z,5.43
2019-02-24T05:37:28.609Z,5.60
2019-02-24T05:39:57.271Z,5.10
2019-02-24T05:42:25.902Z,4.77
2019-02-24T05:44:54.537Z,5.47
2019-02-24T05:47:23.162Z,5.80
2019-02-24T05:49:51.866Z,5.37
2019-02-24T05:52:20.506Z,5.50
2019-02-24T05:54:49.134Z,5.57
2019-02-24T05:57:17.765Z,5.20
2019-02-24T05:59:54.902Z,5.50
2019-02-24T06:02:17.039Z,5.80
2019-02-24T06:04:45.966Z,4.90
2019-02-24T06:07:14.633Z,5.60
2019-02-24T06:09:43.254Z,6.20
2019-02-24T06:12:11.899Z,5.40
2019-02-24T06:14:40.869Z,5.33
2019-02-24T06:17:09.806Z,5.97
2019-02-24T06:19:38.417Z,6.13
2019-02-24T06:22:07.049Z,6.07
2019-02-24T06:24:35.691Z,5.37
2019-02-24T06:27:04.331Z,5.50
2019-02-24T06:29:33.318Z,5.03
2019-02-24T06:32:01.946Z,5.10
2019-02-24T06:34:30.582Z,5.70
2019-02-24T06:36:59.673Z,5.00
2019-02-24T06:39:28.641Z,4.77
2019-02-24T06:41:57.297Z,5.03
2019-02-24T06:44:25.945Z,4.73
2019-02-24T06:46:54.569Z,5.40
2019-02-24T06:49:23.217Z,6.33
2019-02-24T06:51:51.842Z,5.17
2019-02-24T06:54:20.504Z,5.77
2019-02-24T06:56:49.127Z,5.13
2019-02-24T06:59:17.746Z,5.87
2019-02-24T07:01:46.396Z,4.93
2019-02-24T07:04:15.018Z,5.67
2019-02-24T07:06:43.668Z,5.73
2019-02-24T07:09:12.335Z,5.33
2019-02-24T07:11:41.235Z,5.80
2019-02-24T07:14:09.873Z,5.97
2019-02-24T07:16:38.833Z,5.60
2019-02-24T07:19:07.561Z,5.87
2019-02-24T07:21:36.225Z,5.73
2019-02-24T07:24:04.893Z,6.13
2019-02-24T07:26:33.623Z,5.13
2019-02-24T07:29:02.276Z,5.90
2019-02-24T07:31:30.933Z,5.13
2019-02-24T07:33:59.837Z,5.23
2019-02-24T07:36:28.525Z,5.43
2019-02-24T07:38:57.166Z,5.20
2019-02-24T07:41:25.780Z,4.50
2019-02-24T07:43:54.413Z,5.00
2019-02-24T07:46:23.070Z,4.77
2019-02-24T07:48:51.955Z,4.77
2019-02-24T07:51:20.657Z,5.07
2019-02-24T07:53:49.329Z,6.00
2019-02-24T07:56:17.998Z,6.40
2019-02-24T07:58:46.623Z,6.03
2019-02-24T08:01:15.233Z,6.00
2019-02-24T08:03:43.929Z,6.03
2019-02-24T08:06:12.557Z,5.30
2019-02-24T08:08:41.183Z,5.00
2019-02-24T08:11:10.697Z,5.33
2019-02-24T08:13:39.313Z,5.10
2019-02-24T08:16:08.318Z,5.33
2019-02-24T08:18:37.046Z,5.33
2019-02-24T08:21:06.026Z,5.37
2019-02-24T08:23:34.664Z,5.10
2019-02-24T08:26:03.697Z,4.63
2019-02-24T08:28:32.314Z,5.13
2019-02-24T08:31:01.198Z,5.50
2019-02-24T08:33:29.861Z,4.80
2019-02-24T08:35:58.797Z,4.87
2019-02-24T08:38:27.417Z,5.05
2019-02-24T08:40:56.340Z,5.20
2019-02-24T08:43:24.962Z,5.30
2019-02-24T08:45:53.666Z,6.28
2019-02-24T08:48:22.305Z,5.75
2019-02-24T08:50:50.925Z,5.58
2019-02-24T08:53:19.627Z,5.53
2019-02-24T08:55:48.273Z,5.00
2019-02-24T08:58:17.165Z,5.27
2019-02-24T09:00:50.955Z,5.23
2019-02-24T09:03:16.574Z,5.93
2019-02-24T09:05:45.194Z,4.53
2019-02-24T09:08:14.203Z,4.90
2019-02-24T09:10:42.902Z,4.50
2019-02-24T09:13:12.159Z,5.03
2019-02-24T09:15:40.814Z,4.63
2019-02-24T09:18:09.433Z,5.13
2019-02-24T09:20:38.195Z,4.90
2019-02-24T09:23:06.835Z,4.80
2019-02-24T09:25:35.497Z,4.70
2019-02-24T09:28:04.237Z,5.03
2019-02-24T09:30:32.861Z,5.10
2019-02-24T09:33:01.503Z,4.97
2019-02-24T09:35:30.133Z,5.03
2019-02-24T09:37:58.759Z,5.33
2019-02-24T09:40:27.657Z,5.60
2019-02-24T09:42:56.578Z,4.90
2019-02-24T09:45:25.290Z,4.43
2019-02-24T09:47:53.918Z,4.90
2019-02-24T09:50:22.566Z,4.67
2019-02-24T09:52:51.266Z,4.30
2019-02-24T09:55:19.881Z,4.07
2019-02-24T09:57:48.565Z,4.43
2019-02-24T10:00:17.270Z,4.83
2019-02-24T10:02:45.923Z,4.90
2019-02-24T10:05:14.629Z,4.53
2019-02-24T10:07:43.284Z,4.67
2019-02-24T10:10:12.097Z,4.30
2019-02-24T10:12:41.027Z,4.70
2019-02-24T10:15:09.786Z,4.60
2019-02-24T10:17:38.602Z,4.10
2019-02-24T10:20:07.753Z,4.90
2019-02-24T10:22:36.525Z,4.30
2019-02-24T10:25:06.079Z,4.23
2019-02-24T10:27:34.863Z,4.80
2019-02-24T10:30:03.557Z,4.13
2019-02-24T10:32:51.495Z,4.70
2019-02-24T10:35:20.264Z,4.20
2019-02-24T10:37:48.877Z,3.90
2019-02-24T10:40:17.584Z,3.90
2019-02-24T10:42:46.840Z,4.00
2019-02-24T10:45:15.538Z,4.27
2019-02-24T10:47:44.192Z,3.77
2019-02-24T10:50:13.177Z,4.27
2019-02-24T10:52:41.789Z,4.57
2019-02-24T10:55:10.463Z,4.43
2019-02-24T10:57:39.086Z,4.37
2019-02-24T11:00:09.971Z,4.70
2019-02-24T11:02:38.601Z,4.50
2019-02-24T11:05:07.462Z,4.50
2019-02-24T11:07:36.109Z,4.73
2019-02-24T11:10:05.416Z,7.30
2019-02-24T11:12:34.050Z,8.97
2019-02-24T11:15:02.769Z,5.50
2019-02-24T11:17:31.841Z,5.33
2019-02-24T11:20:00.438Z,4.80
2019-02-24T11:22:29.291Z,5.60
2019-02-24T11:24:58.650Z,4.77
2019-02-24T11:27:27.418Z,4.23
2019-02-24T11:29:56.077Z,4.53
2019-02-24T11:32:25.369Z,5.20
2019-02-24T11:34:54.083Z,4.60
2019-02-24T11:37:23.089Z,4.93
2019-02-24T11:39:51.737Z,4.80
2019-02-24T11:42:20.459Z,4.70
2019-02-24T11:44:49.109Z,5.07
2019-02-24T11:47:17.757Z,5.30
2019-02-24T11:49:46.776Z,4.50
2019-02-24T11:52:15.770Z,4.43
2019-02-24T11:54:44.397Z,4.23
2019-02-24T11:57:13.181Z,4.53
2019-02-24T11:59:41.843Z,5.13
2019-02-24T12:02:10.546Z,4.70
2019-02-24T12:04:39.169Z,4.90
2019-02-24T12:07:07.823Z,4.60
2019-02-24T12:09:36.571Z,4.90
2019-02-24T12:12:05.290Z,4.37
2019-02-24T12:14:33.937Z,4.63
2019-02-24T12:17:02.553Z,5.10
2019-02-24T12:19:31.318Z,4.90
2019-02-24T12:22:00.047Z,4.77
2019-02-24T12:24:28.738Z,4.93
2019-02-24T12:26:57.462Z,4.93
2019-02-24T12:29:26.117Z,4.87
2019-02-24T12:31:56.817Z,4.33
2019-02-24T12:34:25.858Z,4.20
2019-02-24T12:36:54.502Z,4.13
2019-02-24T12:39:23.397Z,4.70
2019-02-24T12:42:11.600Z,3.93
2019-02-24T12:44:40.565Z,4.17
2019-02-24T12:47:09.607Z,4.93
2019-02-24T12:49:39.404Z,4.60
2019-02-24T12:52:07.995Z,4.67
2019-02-24T12:54:36.973Z,4.80
2019-02-24T12:57:05.730Z,4.10
2019-02-24T12:59:34.424Z,4.80
2019-02-24T13:02:05.700Z,4.60
2019-02-24T13:04:33.431Z,4.20
2019-02-24T13:07:02.049Z,4.60
2019-02-24T13:09:30.671Z,4.73
2019-02-24T13:11:59.333Z,4.30
2019-02-24T13:14:28.013Z,5.00
2019-02-24T13:16:56.633Z,5.67
2019-02-24T13:19:25.295Z,5.67
2019-02-24T13:21:54.894Z,5.07
2019-02-24T13:24:23.530Z,4.90
2019-02-24T13:26:52.201Z,5.80
2019-02-24T13:29:20.830Z,4.20
2019-02-24T13:31:49.457Z,4.60
2019-02-24T13:34:18.118Z,4.10
2019-02-24T13:36:46.806Z,4.97
2019-02-24T13:39:15.437Z,6.83
2019-02-24T13:41:44.454Z,4.80
2019-02-24T13:44:13.395Z,4.97
2019-02-24T13:46:42.311Z,4.57
2019-02-24T13:49:11.296Z,4.83
2019-02-24T13:51:40.298Z,5.13
2019-02-24T13:54:09.033Z,4.30
2019-02-24T13:56:37.701Z,4.80
2019-02-24T13:59:06.330Z,4.30
2019-02-24T14:01:35.290Z,5.20
2019-02-24T14:04:03.942Z,4.53
2019-02-24T14:06:32.571Z,4.70
2019-02-24T14:09:01.194Z,4.47
2019-02-24T14:11:29.882Z,4.17
2019-02-24T14:13:58.661Z,4.27
2019-02-24T14:16:27.370Z,5.53
2019-02-24T14:18:56.103Z,4.60
2019-02-24T14:21:24.725Z,4.67
2019-02-24T14:23:53.408Z,4.47
2019-02-24T14:26:22.073Z,4.40
2019-02-24T14:28:50.773Z,4.73
2019-02-24T14:31:20.010Z,4.93
2019-02-24T14:33:48.929Z,5.00
2019-02-24T14:36:18.049Z,4.47
2019-02-24T14:38:46.981Z,4.20
2019-02-24T14:41:15.750Z,4.83
2019-02-24T14:43:44.412Z,4.10
2019-02-24T14:46:13.072Z,4.03
2019-02-24T14:48:44.764Z,4.20
2019-02-24T14:51:13.982Z,4.83
2019-02-24T14:53:42.614Z,4.63
2019-02-24T14:56:11.839Z,4.47
2019-02-24T14:58:40.767Z,4.60
2019-02-24T15:01:09.739Z,4.53
2019-02-24T15:03:38.722Z,4.47
2019-02-24T15:06:07.726Z,4.60
2019-02-24T15:08:36.673Z,4.60
2019-02-24T15:11:05.329Z,4.63
2019-02-24T15:13:34.038Z,4.93
2019-02-24T15:16:03.001Z,4.40
2019-02-24T15:18:31.669Z,4.33
2019-02-24T15:21:00.283Z,5.30
2019-02-24T15:23:29.005Z,5.10
2019-02-24T15:25:58.126Z,5.10
2019-02-24T15:28:46.742Z,4.17
2019-02-24T15:31:15.548Z,5.37
2019-02-24T15:33:44.514Z,4.50
2019-02-24T15:36:13.165Z,4.10
2019-02-24T15:38:41.954Z,4.77
2019-02-24T15:41:10.646Z,5.70
2019-02-24T15:43:39.329Z,7.20
2019-02-24T15:46:08.146Z,5.73
2019-02-24T15:48:36.873Z,6.07
2019-02-24T15:51:05.538Z,5.23
2019-02-24T15:53:34.221Z,5.50
2019-02-24T15:56:03.594Z,6.03
2019-02-24T15:58:32.254Z,5.57
2019-02-24T16:01:01.221Z,4.70
2019-02-24T16:03:29.859Z,4.73
2019-02-24T16:05:58.685Z,4.50
2019-02-24T16:08:27.314Z,4.60
2019-02-24T16:10:55.958Z,4.93
2019-02-24T16:13:25.081Z,4.80
2019-02-24T16:15:53.773Z,4.70
2019-02-24T16:18:22.495Z,4.30
2019-02-24T16:20:51.166Z,4.70
2019-02-24T16:23:19.922Z,4.33
2019-02-24T16:25:48.574Z,6.10
2019-02-24T16:28:17.302Z,7.30
2019-02-24T16:30:45.946Z,7.90
2019-02-24T16:33:14.638Z,7.13
2019-02-24T16:35:43.377Z,8.27
2019-02-24T16:38:12.002Z,7.47
2019-02-24T16:40:40.665Z,7.00
2019-02-24T16:43:09.386Z,7.20
2019-02-24T16:45:38.665Z,6.97
2019-02-24T16:48:07.303Z,6.13
2019-02-24T16:50:35.946Z,6.77
2019-02-24T16:53:04.789Z,5.73
2019-02-24T16:55:33.498Z,5.40
2019-02-24T16:58:02.325Z,5.60
2019-02-24T17:00:30.959Z,5.73
2019-02-24T17:02:59.689Z,5.87
2019-02-24T17:05:29.658Z,6.37
2019-02-24T17:07:58.374Z,7.07
2019-02-24T17:10:27.057Z,6.17
2019-02-24T17:12:55.849Z,6.60
2019-02-24T17:15:24.658Z,7.33
2019-02-24T17:17:53.378Z,20.27
2019-02-24T17:20:22.535Z,32.77
2019-02-24T17:22:51.267Z,27.83
2019-02-24T17:25:19.993Z,18.93
2019-02-24T17:27:48.753Z,13.10
2019-02-24T17:30:17.519Z,14.00
2019-02-24T17:32:46.649Z,13.47
2019-02-24T17:35:34.677Z,13.23
2019-02-24T17:38:03.658Z,13.03
2019-02-24T17:40:32.297Z,14.43
2019-02-24T17:43:03.213Z,12.37
2019-02-24T17:45:32.784Z,11.03
2019-02-24T17:48:02.103Z,9.27
2019-02-24T17:50:31.059Z,10.33
2019-02-24T17:52:59.671Z,9.20
2019-02-24T17:55:28.646Z,10.27
2019-02-24T17:57:57.649Z,9.67
2019-02-24T18:00:31.381Z,8.13
2019-02-24T18:03:00.074Z,8.50
2019-02-24T18:05:28.738Z,8.07
2019-02-24T18:07:57.362Z,7.80
2019-02-24T18:10:25.981Z,8.23
2019-02-24T18:12:54.729Z,8.20
2019-02-24T18:15:23.353Z,7.47
2019-02-24T18:17:52.055Z,7.07
2019-02-24T18:20:20.725Z,7.80
2019-02-24T18:22:49.455Z,8.10
2019-02-24T18:25:18.117Z,9.20
2019-02-24T18:27:46.769Z,8.27
2019-02-24T18:30:17.762Z,7.83
2019-02-24T18:32:46.434Z,9.63
2019-02-24T18:35:15.110Z,8.67
2019-02-24T18:37:43.734Z,8.37
2019-02-24T18:40:12.608Z,8.43
2019-02-24T18:42:41.266Z,7.87
2019-02-24T18:45:10.129Z,8.43
2019-02-24T18:47:38.810Z,9.00
2019-02-24T18:50:08.623Z,8.87
2019-02-24T18:52:37.269Z,9.40
2019-02-24T18:55:06.867Z,8.93
2019-02-24T18:57:35.660Z,11.23
2019-02-24T19:00:04.760Z,13.40
2019-02-24T19:02:33.413Z,13.17
2019-02-24T19:05:02.109Z,18.10
2019-02-24T19:07:30.947Z,19.07
2019-02-24T19:09:59.942Z,19.27
2019-02-24T19:12:28.802Z,16.97
2019-02-24T19:14:57.474Z,17.20
2019-02-24T19:17:26.350Z,18.10
2019-02-24T19:19:54.982Z,17.17
2019-02-24T19:22:23.789Z,17.20
2019-02-24T19:24:52.671Z,17.87
2019-02-24T19:27:21.302Z,18.17
2019-02-24T19:29:49.993Z,16.70
2019-02-24T19:32:18.703Z,16.50
2019-02-24T19:34:47.626Z,15.70
2019-02-24T19:37:16.278Z,15.67
2019-02-24T19:39:44.904Z,13.80
2019-02-24T19:42:14.173Z,15.73
2019-02-24T19:44:43.968Z,16.53
2019-02-24T19:47:12.690Z,19.10
2019-02-24T19:49:41.428Z,21.27
2019-02-24T19:52:10.098Z,22.43
2019-02-24T19:54:39.356Z,25.87
2019-02-24T19:57:08.102Z,29.07
2019-02-24T19:59:36.722Z,26.67
2019-02-24T20:02:05.375Z,25.97
2019-02-24T20:04:34.001Z,21.63
2019-02-24T20:07:22.196Z,20.40
2019-02-24T20:09:50.818Z,16.73
2019-02-24T20:12:20.122Z,16.00
2019-02-24T20:14:48.869Z,15.17
2019-02-24T20:17:17.650Z,13.77
2019-02-24T20:19:46.334Z,13.80
2019-02-24T20:22:15.381Z,14.63
2019-02-24T20:24:44.020Z,14.13
2019-02-24T20:27:12.702Z,14.03
2019-02-24T20:29:42.931Z,14.17
2019-02-24T20:32:11.729Z,14.47
2019-02-24T20:34:40.667Z,14.03
2019-02-24T20:37:09.342Z,15.30
2019-02-24T20:39:38.109Z,13.57
2019-02-24T20:42:06.796Z,14.53
2019-02-24T20:44:35.454Z,14.73
2019-02-24T20:47:04.084Z,14.73
2019-02-24T20:49:32.862Z,13.67
2019-02-24T20:52:01.785Z,13.97
2019-02-24T20:54:30.447Z,14.57
2019-02-24T20:56:59.098Z,13.80
2019-02-24T20:59:27.717Z,12.33
2019-02-24T21:01:56.494Z,13.33
2019-02-24T21:04:25.141Z,12.43
2019-02-24T21:06:53.770Z,11.80
2019-02-24T21:09:22.417Z,12.67
2019-02-24T21:11:51.043Z,13.43
2019-02-24T21:14:19.721Z,12.80
2019-02-24T21:16:48.467Z,13.07
2019-02-24T21:19:17.083Z,12.93
2019-02-24T21:21:45.829Z,13.13
2019-02-24T21:24:14.465Z,13.37
2019-02-24T21:26:43.089Z,13.73
2019-02-24T21:29:11.735Z,13.07
2019-02-24T21:31:40.385Z,12.93
2019-02-24T21:34:09.100Z,13.50
2019-02-24T21:36:38.186Z,12.90
2019-02-24T21:39:06.879Z,13.77
2019-02-24T21:41:35.518Z,13.00
2019-02-24T21:44:04.189Z,14.47
2019-02-24T21:46:32.947Z,14.53
2019-02-24T21:49:01.583Z,15.37
2019-02-24T21:51:30.225Z,17.30
2019-02-24T21:53:58.870Z,18.60
2019-02-24T21:56:27.496Z,17.97
2019-02-24T21:58:56.143Z,19.53
2019-02-24T22:01:24.876Z,18.97
2019-02-24T22:03:53.494Z,19.17
2019-02-24T22:06:22.185Z,18.10
2019-02-24T22:08:51.074Z,18.97
2019-02-24T22:11:19.706Z,18.07
2019-02-24T22:13:48.374Z,16.57
2019-02-24T22:16:17.006Z,16.40
2019-02-24T22:18:45.654Z,17.17
2019-02-24T22:21:14.282Z,14.50
2019-02-24T22:23:42.909Z,14.87
2019-02-24T22:26:11.559Z,14.73
2019-02-24T22:28:40.465Z,14.03
2019-02-24T22:31:09.109Z,13.93
2019-02-24T22:33:37.739Z,13.80
2019-02-24T22:36:06.408Z,14.43
2019-02-24T22:38:35.050Z,12.60
2019-02-24T22:41:05.277Z,13.53
2019-02-24T22:43:33.930Z,13.27
2019-02-24T22:46:02.558Z,13.30
2019-02-24T22:48:31.263Z,12.87
2019-02-24T22:51:00.306Z,13.53
2019-02-24T22:53:29.015Z,13.07
2019-02-24T22:55:57.837Z,13.20
2019-02-24T22:58:26.462Z,13.57
